Time,TemperatureF,DewpointF,PressureIn,WindDirection,WindDirectionDegrees,WindSpeedMPH,WindSpeedGustMPH,Humidity,HourlyPrecipIn,Conditions,Clouds,dailyrainin,SoftwareType,DateUTC
2013-06-24 00:21:00,55.1,29.0,29.62,West,280,2.0,4.0,37,0.00,,,0.00,weatherlink.com 1.10,2013-06-24 06:21:00,
2013-06-24 00:36:00,53.1,29.0,29.62,West,281,1.0,4.0,39,0.00,,,0.00,weatherlink.com 1.10,2013-06-24 06:36:00,
2013-06-24 00:51:00,52.5,28.0,29.62,West,281,3.0,4.0,39,0.00,,,0.00,weatherlink.com 1.10,2013-06-24 06:51:00,
2013-06-24 01:06:00,52.3,28.0,29.61,ENE,77,4.0,6.0,39,0.00,,,0.00,weatherlink.com 1.10,2013-06-24 07:06:00,
2013-06-24 01:51:00,52.4,28.0,29.61,East,79,0.0,0.0,39,0.00,,,0.00,weatherlink.com 1.10,2013-06-24 07:51:00,
2013-06-24 02:06:00,52.0,27.0,29.61,East,79,0.0,0.0,38,0.00,,,0.00,weatherlink.com 1.10,2013-06-24 08:06:00,
2013-06-24 02:36:00,49.6,26.0,29.60,East,79,0.0,4.0,40,0.00,,,0.00,weatherlink.com 1.10,2013-06-24 08:36:00,
2013-06-24 02:51:00,50.1,26.0,29.61,East,79,0.0,0.0,40,0.00,,,0.00,weatherlink.com 1.10,2013-06-24 08:51:00,
2013-06-24 03:06:00,51.1,26.0,29.61,East,79,0.0,0.0,38,0.00,,,0.00,weatherlink.com 1.10,2013-06-24 09:06:00,
2013-06-24 03:21:00,49.3,25.0,29.61,East,79,0.0,0.0,39,0.00,,,0.00,weatherlink.com 1.10,2013-06-24 09:21:00,
2013-06-24 03:36:00,48.6,25.0,29.61,East,79,0.0,3.0,40,0.00,,,0.00,weatherlink.com 1.10,2013-06-24 09:36:00,
2013-06-24 03:51:00,48.8,25.0,29.61,ENE,77,2.0,5.0,40,0.00,,,0.00,weatherlink.com 1.10,2013-06-24 09:51:00,
2013-06-24 04:06:00,47.2,26.0,29.61,ENE,77,0.0,0.0,44,0.00,,,0.00,weatherlink.com 1.10,2013-06-24 10:06:00,
2013-06-24 04:21:00,47.6,26.0,29.62,NNE,16,1.0,7.0,43,0.00,,,0.00,weatherlink.com 1.10,2013-06-24 10:21:00,
2013-06-24 04:36:00,49.4,25.0,29.62,ENE,68,6.0,7.0,39,0.00,,,0.00,weatherlink.com 1.10,2013-06-24 10:36:00,
2013-06-24 04:51:00,50.9,26.0,29.62,ENE,70,0.0,0.0,38,0.00,,,0.00,weatherlink.com 1.10,2013-06-24 10:51:00,
2013-06-24 05:06:00,51.2,25.0,29.63,ENE,70,0.0,0.0,36,0.00,,,0.00,weatherlink.com 1.10,2013-06-24 11:06:00,
2013-06-24 05:21:00,51.1,24.0,29.63,ENE,70,0.0,0.0,35,0.00,,,0.00,weatherlink.com 1.10,2013-06-24 11:21:00,
2013-06-24 05:36:00,49.9,26.0,29.63,ENE,69,0.0,0.0,39,0.00,,,0.00,weatherlink.com 1.10,2013-06-24 11:36:00,
2013-06-24 05:51:00,50.4,24.0,29.64,ENE,68,0.0,0.0,35,0.00,,,0.00,weatherlink.com 1.10,2013-06-24 11:51:00,
2013-06-24 06:06:00,51.7,25.0,29.64,ENE,66,0.0,2.0,35,0.00,,,0.00,weatherlink.com 1.10,2013-06-24 12:06:00,
2013-06-24 06:36:00,56.2,26.0,29.64,SSE,154,5.0,7.0,31,0.00,,,0.00,weatherlink.com 1.10,2013-06-24 12:36:00,
2013-06-24 06:51:00,57.1,26.0,29.64,SSW,199,2.0,12.0,30,0.00,,,0.00,weatherlink.com 1.10,2013-06-24 12:51:00,
2013-06-24 07:06:00,56.3,27.0,29.64,South,184,0.0,4.0,32,0.00,,,0.00,weatherlink.com 1.10,2013-06-24 13:06:00,
2013-06-24 07:21:00,56.2,29.0,29.64,South,179,0.0,7.0,35,0.00,,,0.00,weatherlink.com 1.10,2013-06-24 13:21:00,
2013-06-24 07:36:00,56.4,29.0,29.64,SSW,198,8.0,9.0,35,0.00,,,0.00,weatherlink.com 1.10,2013-06-24 13:36:00,
2013-06-24 07:51:00,56.7,29.0,29.65,SSW,192,4.0,14.0,35,0.00,,,0.00,weatherlink.com 1.10,2013-06-24 13:51:00,
2013-06-24 08:22:00,59.0,30.0,29.65,South,181,6.0,11.0,33,0.00,,,0.00,weatherlink.com 1.10,2013-06-24 14:22:00,
2013-06-24 08:52:00,59.9,29.0,29.66,South,178,8.0,17.0,31,0.00,,,0.00,weatherlink.com 1.10,2013-06-24 14:52:00,
2013-06-24 09:07:00,60.9,28.0,29.66,South,191,5.0,15.0,29,0.00,,,0.00,weatherlink.com 1.10,2013-06-24 15:07:00,
2013-06-24 09:22:00,62.5,31.0,29.66,SSW,201,9.0,11.0,30,0.00,,,0.00,weatherlink.com 1.10,2013-06-24 15:22:00,
2013-06-24 09:37:00,62.9,32.0,29.65,SSW,192,0.0,9.0,31,0.00,,,0.00,weatherlink.com 1.10,2013-06-24 15:37:00,
2013-06-24 09:52:00,64.4,30.0,29.64,South,186,3.0,12.0,27,0.00,,,0.00,weatherlink.com 1.10,2013-06-24 15:52:00,
2013-06-24 10:07:00,65.0,30.0,29.64,SW,215,9.0,16.0,27,0.00,,,0.00,weatherlink.com 1.10,2013-06-24 16:07:00,
2013-06-24 10:22:00,67.5,29.0,29.63,SSW,208,19.0,24.0,24,0.00,,,0.00,weatherlink.com 1.10,2013-06-24 16:22:00,
2013-06-24 10:37:00,68.2,31.0,29.63,SSW,212,8.0,24.0,25,0.00,,,0.00,weatherlink.com 1.10,2013-06-24 16:37:00,
2013-06-24 10:52:00,68.9,27.0,29.63,WSW,244,20.0,33.0,21,0.00,,,0.00,weatherlink.com 1.10,2013-06-24 16:52:00,
2013-06-24 11:07:00,69.5,27.0,29.63,SW,233,18.0,33.0,20,0.00,,,0.00,weatherlink.com 1.10,2013-06-24 17:07:00,
2013-06-24 11:22:00,70.2,28.0,29.63,SSW,194,19.0,28.0,21,0.00,,,0.00,weatherlink.com 1.10,2013-06-24 17:22:00,
2013-06-24 11:37:00,70.8,30.0,29.63,South,184,22.0,27.0,22,0.00,,,0.00,weatherlink.com 1.10,2013-06-24 17:37:00,
2013-06-24 12:07:00,71.7,26.0,29.62,SW,226,17.0,24.0,18,0.00,,,0.00,weatherlink.com 1.10,2013-06-24 18:07:00,
2013-06-24 12:22:00,72.9,27.0,29.61,SSW,198,17.0,24.0,18,0.00,,,0.00,weatherlink.com 1.10,2013-06-24 18:22:00,
2013-06-24 12:37:00,71.9,25.0,29.61,SSW,205,14.0,30.0,17,0.00,,,0.00,weatherlink.com 1.10,2013-06-24 18:37:00,
2013-06-24 12:53:00,70.7,25.0,29.60,SSW,193,11.0,30.0,18,0.00,,,0.00,weatherlink.com 1.10,2013-06-24 18:53:00,
2013-06-24 13:07:00,73.5,26.0,29.59,SSW,207,23.0,29.0,17,0.00,,,0.00,weatherlink.com 1.10,2013-06-24 19:07:00,
2013-06-24 13:22:00,73.7,26.0,29.59,SSW,195,24.0,30.0,17,0.00,,,0.00,weatherlink.com 1.10,2013-06-24 19:22:00,
2013-06-24 13:38:00,74.3,28.0,29.58,SSW,200,21.0,29.0,18,0.00,,,0.00,weatherlink.com 1.10,2013-06-24 19:38:00,
2013-06-24 13:53:00,74.5,27.0,29.58,SW,229,18.0,31.0,17,0.00,,,0.00,weatherlink.com 1.10,2013-06-24 19:53:00,
2013-06-24 14:08:00,75.5,28.0,29.57,SW,219,18.0,29.0,17,0.00,,,0.00,weatherlink.com 1.10,2013-06-24 20:08:00,
2013-06-24 14:38:00,77.1,30.0,29.57,SSW,205,16.0,29.0,18,0.00,,,0.00,weatherlink.com 1.10,2013-06-24 20:38:00,
2013-06-24 14:53:00,76.2,28.0,29.57,SSW,193,18.0,29.0,17,0.00,,,0.00,weatherlink.com 1.10,2013-06-24 20:53:00,
2013-06-24 15:08:00,76.0,28.0,29.57,SW,226,11.0,28.0,17,0.00,,,0.00,weatherlink.com 1.10,2013-06-24 21:08:00,
2013-06-24 15:23:00,73.7,26.0,29.57,SW,232,17.0,31.0,17,0.00,,,0.00,weatherlink.com 1.10,2013-06-24 21:23:00,
2013-06-24 15:38:00,75.4,26.0,29.57,WSW,242,24.0,30.0,16,0.00,,,0.00,weatherlink.com 1.10,2013-06-24 21:38:00,
2013-06-24 15:53:00,73.6,29.0,29.57,SW,232,16.0,29.0,19,0.00,,,0.00,weatherlink.com 1.10,2013-06-24 21:53:00,
2013-06-24 16:08:00,73.9,28.0,29.57,SW,228,17.0,26.0,18,0.00,,,0.00,weatherlink.com 1.10,2013-06-24 22:08:00,
2013-06-24 16:38:00,74.0,30.0,29.57,SW,219,6.0,21.0,20,0.00,,,0.00,weatherlink.com 1.10,2013-06-24 22:38:00,
2013-06-24 16:53:00,73.8,31.0,29.57,SSW,203,15.0,22.0,21,0.00,,,0.00,weatherlink.com 1.10,2013-06-24 22:53:00,
2013-06-24 17:23:00,72.1,28.0,29.57,SSW,198,11.0,19.0,19,0.00,,,0.00,weatherlink.com 1.10,2013-06-24 23:23:00,
2013-06-24 17:38:00,74.4,29.0,29.56,SSW,209,21.0,23.0,19,0.00,,,0.00,weatherlink.com 1.10,2013-06-24 23:38:00,
2013-06-24 18:08:00,73.4,27.0,29.56,SW,225,12.0,21.0,18,0.00,,,0.00,weatherlink.com 1.10,2013-06-25 00:08:00,
2013-06-24 18:23:00,70.2,25.0,29.56,WSW,237,19.0,24.0,18,0.00,,,0.00,weatherlink.com 1.10,2013-06-25 00:23:00,
2013-06-24 18:38:00,70.7,26.0,29.57,SW,221,16.0,22.0,19,0.00,,,0.00,weatherlink.com 1.10,2013-06-25 00:38:00,
2013-06-24 19:08:00,69.2,25.0,29.58,SSW,212,9.0,25.0,19,0.00,,,0.00,weatherlink.com 1.10,2013-06-25 01:08:00,
2013-06-24 19:23:00,68.3,26.0,29.58,SW,215,2.0,16.0,20,0.00,,,0.00,weatherlink.com 1.10,2013-06-25 01:23:00,
2013-06-24 19:38:00,67.5,25.0,29.58,SW,231,11.0,14.0,20,0.00,,,0.00,weatherlink.com 1.10,2013-06-25 01:38:00,
2013-06-24 19:53:00,67.3,25.0,29.59,South,186,11.0,15.0,20,0.00,,,0.00,weatherlink.com 1.10,2013-06-25 01:53:00,
2013-06-24 20:08:00,67.1,26.0,29.59,SSW,208,10.0,15.0,21,0.00,,,0.00,weatherlink.com 1.10,2013-06-25 02:08:00,
2013-06-24 20:23:00,66.7,25.0,29.60,SW,215,11.0,13.0,21,0.00,,,0.00,weatherlink.com 1.10,2013-06-25 02:23:00,
2013-06-24 20:38:00,67.2,27.0,29.61,WSW,245,9.0,25.0,22,0.00,,,0.00,weatherlink.com 1.10,2013-06-25 02:38:00,
2013-06-24 20:53:00,66.4,26.0,29.61,SW,229,7.0,10.0,22,0.00,,,0.00,weatherlink.com 1.10,2013-06-25 02:53:00,
2013-06-24 21:08:00,65.4,27.0,29.61,SSW,197,2.0,7.0,23,0.00,,,0.00,weatherlink.com 1.10,2013-06-25 03:08:00,
2013-06-24 21:23:00,65.5,26.0,29.61,SSW,198,9.0,17.0,22,0.00,,,0.00,weatherlink.com 1.10,2013-06-25 03:23:00,
2013-06-24 22:08:00,64.9,28.0,29.62,SSW,197,4.0,11.0,25,0.00,,,0.00,weatherlink.com 1.10,2013-06-25 04:08:00,
2013-06-24 22:24:00,64.7,28.0,29.62,SSW,193,6.0,9.0,25,0.00,,,0.00,weatherlink.com 1.10,2013-06-25 04:24:00,
2013-06-24 22:38:00,64.7,28.0,29.62,South,190,2.0,8.0,25,0.00,,,0.00,weatherlink.com 1.10,2013-06-25 04:38:00,
2013-06-24 22:53:00,64.5,28.0,29.62,SW,229,8.0,15.0,25,0.00,,,0.00,weatherlink.com 1.10,2013-06-25 04:53:00,
2013-06-24 23:08:00,64.7,29.0,29.63,WSW,245,9.0,23.0,26,0.00,,,0.00,weatherlink.com 1.10,2013-06-25 05:08:00,
2013-06-24 23:23:00,65.1,28.0,29.62,West,260,11.0,22.0,25,0.00,,,0.00,weatherlink.com 1.10,2013-06-25 05:23:00,
2013-06-24 23:38:00,64.9,29.0,29.62,West,275,8.0,15.0,26,0.00,,,0.00,weatherlink.com 1.10,2013-06-25 05:38:00,
2013-06-24 23:53:00,64.5,29.0,29.62,West,259,2.0,11.0,26,0.00,,,0.00,weatherlink.com 1.10,2013-06-25 05:53:00,